sensor_id;sensor_type;location;lat;lon;timestamp;P1;durP1;ratioP1;P2;durP2;ratioP2
36351;SDS011;22382;44.768;17.206;2023-12-28T00:02:26;46.72;;;25.75;;
36351;SDS011;22382;44.768;17.206;2023-12-28T00:04:53;54.65;;;29.45;;
36351;SDS011;22382;44.768;17.206;2023-12-28T00:07:21;50.92;;;27.67;;
36351;SDS011;22382;44.768;17.206;2023-12-28T00:09:48;51.30;;;26.33;;
36351;SDS011;22382;44.768;17.206;2023-12-28T00:12:15;57.10;;;28.15;;
36351;SDS011;22382;44.768;17.206;2023-12-28T00:14:42;64.55;;;31.45;;
36351;SDS011;22382;44.768;17.206;2023-12-28T00:17:09;57.08;;;29.35;;
36351;SDS011;22382;44.768;17.206;2023-12-28T00:19:37;53.65;;;28.33;;
36351;SDS011;22382;44.768;17.206;2023-12-28T00:22:04;47.33;;;26.75;;
36351;SDS011;22382;44.768;17.206;2023-12-28T00:24:31;43.92;;;23.25;;
36351;SDS011;22382;44.768;17.206;2023-12-28T00:26:58;40.22;;;22.25;;
36351;SDS011;22382;44.768;17.206;2023-12-28T00:29:26;37.33;;;19.13;;
36351;SDS011;22382;44.768;17.206;2023-12-28T00:31:55;43.25;;;21.92;;
36351;SDS011;22382;44.768;17.206;2023-12-28T00:34:22;35.08;;;19.92;;
36351;SDS011;22382;44.768;17.206;2023-12-28T00:36:49;35.38;;;20.80;;
36351;SDS011;22382;44.768;17.206;2023-12-28T00:39:17;37.65;;;20.40;;
36351;SDS011;22382;44.768;17.206;2023-12-28T00:41:44;40.78;;;21.75;;
36351;SDS011;22382;44.768;17.206;2023-12-28T00:44:11;41.47;;;24.63;;
36351;SDS011;22382;44.768;17.206;2023-12-28T00:46:38;42.67;;;22.10;;
36351;SDS011;22382;44.768;17.206;2023-12-28T00:49:06;34.58;;;19.02;;
36351;SDS011;22382;44.768;17.206;2023-12-28T00:51:35;37.33;;;20.35;;
36351;SDS011;22382;44.768;17.206;2023-12-28T00:54:03;45.25;;;23.55;;
36351;SDS011;22382;44.768;17.206;2023-12-28T00:56:30;38.83;;;21.10;;
36351;SDS011;22382;44.768;17.206;2023-12-28T00:58:57;45.67;;;25.48;;
36351;SDS011;22382;44.768;17.206;2023-12-28T01:01:24;46.55;;;24.10;;
36351;SDS011;22382;44.768;17.206;2023-12-28T01:03:52;58.05;;;32.92;;
36351;SDS011;22382;44.768;17.206;2023-12-28T01:06:19;55.83;;;32.78;;
36351;SDS011;22382;44.768;17.206;2023-12-28T01:08:46;60.63;;;31.98;;
36351;SDS011;22382;44.768;17.206;2023-12-28T01:11:13;52.58;;;26.92;;
36351;SDS011;22382;44.768;17.206;2023-12-28T01:13:41;44.63;;;24.75;;
36351;SDS011;22382;44.768;17.206;2023-12-28T01:16:08;44.90;;;23.55;;
36351;SDS011;22382;44.768;17.206;2023-12-28T01:18:35;43.47;;;22.13;;
36351;SDS011;22382;44.768;17.206;2023-12-28T01:21:02;34.95;;;19.95;;
36351;SDS011;22382;44.768;17.206;2023-12-28T01:23:30;38.03;;;18.08;;
36351;SDS011;22382;44.768;17.206;2023-12-28T01:25:57;39.75;;;19.95;;
36351;SDS011;22382;44.768;17.206;2023-12-28T01:28:26;43.33;;;20.25;;
36351;SDS011;22382;44.768;17.206;2023-12-28T01:30:53;33.78;;;18.10;;
36351;SDS011;22382;44.768;17.206;2023-12-28T01:33:20;35.63;;;17.05;;
36351;SDS011;22382;44.768;17.206;2023-12-28T01:35:48;27.75;;;15.55;;
36351;SDS011;22382;44.768;17.206;2023-12-28T01:38:15;23.58;;;14.70;;
36351;SDS011;22382;44.768;17.206;2023-12-28T01:40:45;26.58;;;14.85;;
36351;SDS011;22382;44.768;17.206;2023-12-28T01:43:12;25.67;;;14.65;;
36351;SDS011;22382;44.768;17.206;2023-12-28T01:45:39;24.52;;;14.27;;
36351;SDS011;22382;44.768;17.206;2023-12-28T01:48:06;22.65;;;12.90;;
36351;SDS011;22382;44.768;17.206;2023-12-28T01:50:35;22.90;;;13.80;;
36351;SDS011;22382;44.768;17.206;2023-12-28T01:53:02;27.70;;;14.57;;
36351;SDS011;22382;44.768;17.206;2023-12-28T01:55:30;23.63;;;13.88;;
36351;SDS011;22382;44.768;17.206;2023-12-28T01:57:58;24.77;;;13.70;;
36351;SDS011;22382;44.768;17.206;2023-12-28T02:00:26;28.80;;;16.38;;
36351;SDS011;22382;44.768;17.206;2023-12-28T02:02:54;30.50;;;16.40;;
36351;SDS011;22382;44.768;17.206;2023-12-28T02:05:25;30.48;;;15.55;;
36351;SDS011;22382;44.768;17.206;2023-12-28T02:07:52;27.80;;;16.25;;
36351;SDS011;22382;44.768;17.206;2023-12-28T02:10:19;31.17;;;18.63;;
36351;SDS011;22382;44.768;17.206;2023-12-28T02:12:46;27.90;;;15.05;;
36351;SDS011;22382;44.768;17.206;2023-12-28T02:15:16;29.50;;;16.88;;
36351;SDS011;22382;44.768;17.206;2023-12-28T02:17:46;31.67;;;16.90;;
36351;SDS011;22382;44.768;17.206;2023-12-28T02:20:41;35.67;;;19.40;;
36351;SDS011;22382;44.768;17.206;2023-12-28T02:23:10;35.58;;;18.40;;
36351;SDS011;22382;44.768;17.206;2023-12-28T02:25:37;32.65;;;17.88;;
36351;SDS011;22382;44.768;17.206;2023-12-28T02:28:04;34.97;;;18.63;;
36351;SDS011;22382;44.768;17.206;2023-12-28T02:30:32;39.92;;;20.00;;
36351;SDS011;22382;44.768;17.206;2023-12-28T02:36:01;33.05;;;18.60;;
36351;SDS011;22382;44.768;17.206;2023-12-28T02:38:32;26.60;;;15.73;;
36351;SDS011;22382;44.768;17.206;2023-12-28T02:41:03;34.67;;;17.83;;
36351;SDS011;22382;44.768;17.206;2023-12-28T02:43:31;33.42;;;17.83;;
36351;SDS011;22382;44.768;17.206;2023-12-28T02:45:59;38.92;;;20.70;;
36351;SDS011;22382;44.768;17.206;2023-12-28T02:48:27;29.88;;;18.58;;
36351;SDS011;22382;44.768;17.206;2023-12-28T02:50:54;38.30;;;20.63;;
36351;SDS011;22382;44.768;17.206;2023-12-28T02:53:21;36.60;;;21.58;;
36351;SDS011;22382;44.768;17.206;2023-12-28T02:55:49;36.35;;;18.65;;
36351;SDS011;22382;44.768;17.206;2023-12-28T02:58:16;34.33;;;18.02;;
36351;SDS011;22382;44.768;17.206;2023-12-28T03:00:43;32.70;;;17.25;;
36351;SDS011;22382;44.768;17.206;2023-12-28T03:03:10;32.58;;;16.70;;
36351;SDS011;22382;44.768;17.206;2023-12-28T03:05:38;31.65;;;15.45;;
36351;SDS011;22382;44.768;17.206;2023-12-28T03:08:05;22.92;;;13.68;;
36351;SDS011;22382;44.768;17.206;2023-12-28T03:10:32;27.55;;;15.50;;
36351;SDS011;22382;44.768;17.206;2023-12-28T03:12:59;26.98;;;15.10;;
36351;SDS011;22382;44.768;17.206;2023-12-28T03:15:27;23.40;;;15.13;;
36351;SDS011;22382;44.768;17.206;2023-12-28T03:17:54;26.67;;;14.30;;
36351;SDS011;22382;44.768;17.206;2023-12-28T03:20:22;23.70;;;14.30;;
36351;SDS011;22382;44.768;17.206;2023-12-28T03:22:49;29.27;;;15.82;;
36351;SDS011;22382;44.768;17.206;2023-12-28T03:25:16;25.10;;;14.00;;
36351;SDS011;22382;44.768;17.206;2023-12-28T03:27:43;23.08;;;13.35;;
36351;SDS011;22382;44.768;17.206;2023-12-28T03:30:11;27.90;;;13.60;;
36351;SDS011;22382;44.768;17.206;2023-12-28T03:32:38;23.58;;;13.73;;
36351;SDS011;22382;44.768;17.206;2023-12-28T03:35:06;26.85;;;14.75;;
36351;SDS011;22382;44.768;17.206;2023-12-28T03:37:34;24.38;;;13.80;;
36351;SDS011;22382;44.768;17.206;2023-12-28T03:40:02;27.10;;;15.02;;
36351;SDS011;22382;44.768;17.206;2023-12-28T03:42:29;27.92;;;14.73;;
36351;SDS011;22382;44.768;17.206;2023-12-28T03:44:56;26.35;;;15.38;;
36351;SDS011;22382;44.768;17.206;2023-12-28T03:47:24;26.48;;;15.95;;
36351;SDS011;22382;44.768;17.206;2023-12-28T03:49:51;27.40;;;16.17;;
36351;SDS011;22382;44.768;17.206;2023-12-28T03:52:18;32.17;;;15.75;;
36351;SDS011;22382;44.768;17.206;2023-12-28T03:54:45;26.48;;;15.65;;
36351;SDS011;22382;44.768;17.206;2023-12-28T03:57:13;30.10;;;15.82;;
36351;SDS011;22382;44.768;17.206;2023-12-28T03:59:40;25.95;;;15.25;;
36351;SDS011;22382;44.768;17.206;2023-12-28T04:02:07;28.08;;;14.95;;
36351;SDS011;22382;44.768;17.206;2023-12-28T04:04:34;23.33;;;13.52;;
36351;SDS011;22382;44.768;17.206;2023-12-28T04:07:02;21.05;;;13.43;;
36351;SDS011;22382;44.768;17.206;2023-12-28T04:09:29;23.98;;;14.07;;
36351;SDS011;22382;44.768;17.206;2023-12-28T04:11:56;26.35;;;13.50;;
36351;SDS011;22382;44.768;17.206;2023-12-28T04:14:23;22.48;;;12.48;;
36351;SDS011;22382;44.768;17.206;2023-12-28T04:16:50;20.67;;;12.43;;
36351;SDS011;22382;44.768;17.206;2023-12-28T04:19:17;22.98;;;13.85;;
36351;SDS011;22382;44.768;17.206;2023-12-28T04:21:46;27.17;;;13.98;;
36351;SDS011;22382;44.768;17.206;2023-12-28T04:24:14;26.90;;;14.05;;
36351;SDS011;22382;44.768;17.206;2023-12-28T04:26:41;24.58;;;14.07;;
36351;SDS011;22382;44.768;17.206;2023-12-28T04:29:08;24.45;;;14.02;;
36351;SDS011;22382;44.768;17.206;2023-12-28T04:31:39;23.27;;;14.40;;
36351;SDS011;22382;44.768;17.206;2023-12-28T04:36:42;21.58;;;13.32;;
36351;SDS011;22382;44.768;17.206;2023-12-28T04:39:10;24.10;;;12.65;;
36351;SDS011;22382;44.768;17.206;2023-12-28T04:41:37;21.33;;;13.15;;
36351;SDS011;22382;44.768;17.206;2023-12-28T04:44:04;26.98;;;13.63;;
36351;SDS011;22382;44.768;17.206;2023-12-28T04:46:31;23.98;;;14.30;;
36351;SDS011;22382;44.768;17.206;2023-12-28T04:48:58;28.85;;;15.30;;
36351;SDS011;22382;44.768;17.206;2023-12-28T04:51:26;25.58;;;15.88;;
36351;SDS011;22382;44.768;17.206;2023-12-28T04:53:53;30.73;;;15.90;;
36351;SDS011;22382;44.768;17.206;2023-12-28T04:56:20;25.52;;;15.25;;
36351;SDS011;22382;44.768;17.206;2023-12-28T04:58:47;22.85;;;13.93;;
36351;SDS011;22382;44.768;17.206;2023-12-28T05:01:14;24.52;;;14.95;;
36351;SDS011;22382;44.768;17.206;2023-12-28T05:03:42;29.65;;;14.60;;
36351;SDS011;22382;44.768;17.206;2023-12-28T05:06:09;24.23;;;13.02;;
36351;SDS011;22382;44.768;17.206;2023-12-28T05:08:36;21.67;;;13.50;;
36351;SDS011;22382;44.768;17.206;2023-12-28T05:11:05;21.25;;;13.88;;
36351;SDS011;22382;44.768;17.206;2023-12-28T05:13:32;24.00;;;13.35;;
36351;SDS011;22382;44.768;17.206;2023-12-28T05:16:01;19.92;;;12.73;;
36351;SDS011;22382;44.768;17.206;2023-12-28T05:18:28;22.48;;;13.40;;
36351;SDS011;22382;44.768;17.206;2023-12-28T05:20:56;27.02;;;14.43;;
36351;SDS011;22382;44.768;17.206;2023-12-28T05:23:23;28.85;;;14.93;;
36351;SDS011;22382;44.768;17.206;2023-12-28T05:25:50;28.90;;;14.68;;
36351;SDS011;22382;44.768;17.206;2023-12-28T05:28:17;23.98;;;14.05;;
36351;SDS011;22382;44.768;17.206;2023-12-28T05:30:45;23.08;;;14.30;;
36351;SDS011;22382;44.768;17.206;2023-12-28T05:33:12;27.27;;;16.00;;
36351;SDS011;22382;44.768;17.206;2023-12-28T05:35:39;22.02;;;13.85;;
36351;SDS011;22382;44.768;17.206;2023-12-28T05:38:06;27.27;;;15.02;;
36351;SDS011;22382;44.768;17.206;2023-12-28T05:40:34;27.33;;;14.80;;
36351;SDS011;22382;44.768;17.206;2023-12-28T05:43:01;27.85;;;15.60;;
36351;SDS011;22382;44.768;17.206;2023-12-28T05:45:28;28.70;;;15.68;;
36351;SDS011;22382;44.768;17.206;2023-12-28T05:47:55;25.95;;;15.73;;
36351;SDS011;22382;44.768;17.206;2023-12-28T05:50:23;25.90;;;14.77;;
36351;SDS011;22382;44.768;17.206;2023-12-28T05:52:50;24.67;;;15.18;;
36351;SDS011;22382;44.768;17.206;2023-12-28T05:55:17;26.75;;;15.13;;
36351;SDS011;22382;44.768;17.206;2023-12-28T05:57:44;24.95;;;14.88;;
36351;SDS011;22382;44.768;17.206;2023-12-28T06:00:12;23.48;;;14.10;;
36351;SDS011;22382;44.768;17.206;2023-12-28T06:02:40;30.75;;;16.92;;
36351;SDS011;22382;44.768;17.206;2023-12-28T06:05:07;34.50;;;16.42;;
36351;SDS011;22382;44.768;17.206;2023-12-28T06:07:35;29.00;;;16.35;;
36351;SDS011;22382;44.768;17.206;2023-12-28T06:10:02;29.67;;;16.10;;
36351;SDS011;22382;44.768;17.206;2023-12-28T06:12:30;28.90;;;15.98;;
36351;SDS011;22382;44.768;17.206;2023-12-28T06:14:58;27.33;;;15.85;;
36351;SDS011;22382;44.768;17.206;2023-12-28T06:17:25;32.13;;;17.55;;
36351;SDS011;22382;44.768;17.206;2023-12-28T06:19:53;31.20;;;17.38;;
36351;SDS011;22382;44.768;17.206;2023-12-28T06:22:20;30.60;;;17.13;;
36351;SDS011;22382;44.768;17.206;2023-12-28T06:24:47;31.50;;;17.65;;
36351;SDS011;22382;44.768;17.206;2023-12-28T06:27:14;35.22;;;17.17;;
36351;SDS011;22382;44.768;17.206;2023-12-28T06:29:41;30.33;;;16.58;;
36351;SDS011;22382;44.768;17.206;2023-12-28T06:32:09;32.30;;;17.08;;
36351;SDS011;22382;44.768;17.206;2023-12-28T06:34:36;34.13;;;18.25;;
36351;SDS011;22382;44.768;17.206;2023-12-28T06:37:03;42.53;;;19.63;;
36351;SDS011;22382;44.768;17.206;2023-12-28T06:39:30;40.38;;;19.92;;
36351;SDS011;22382;44.768;17.206;2023-12-28T06:41:58;41.95;;;20.77;;
36351;SDS011;22382;44.768;17.206;2023-12-28T06:44:25;37.50;;;20.05;;
36351;SDS011;22382;44.768;17.206;2023-12-28T06:46:52;31.67;;;18.45;;
36351;SDS011;22382;44.768;17.206;2023-12-28T06:49:19;28.38;;;16.85;;
36351;SDS011;22382;44.768;17.206;2023-12-28T06:51:46;31.38;;;17.27;;
36351;SDS011;22382;44.768;17.206;2023-12-28T06:54:14;28.10;;;15.85;;
36351;SDS011;22382;44.768;17.206;2023-12-28T06:56:42;30.23;;;16.13;;
36351;SDS011;22382;44.768;17.206;2023-12-28T06:59:09;26.63;;;15.88;;
36351;SDS011;22382;44.768;17.206;2023-12-28T07:01:38;28.85;;;15.80;;
36351;SDS011;22382;44.768;17.206;2023-12-28T07:04:06;32.38;;;19.92;;
36351;SDS011;22382;44.768;17.206;2023-12-28T07:06:34;48.33;;;25.52;;
36351;SDS011;22382;44.768;17.206;2023-12-28T07:09:01;59.03;;;31.80;;
36351;SDS011;22382;44.768;17.206;2023-12-28T07:11:28;48.03;;;29.15;;
36351;SDS011;22382;44.768;17.206;2023-12-28T07:13:56;48.80;;;28.15;;
36351;SDS011;22382;44.768;17.206;2023-12-28T07:16:23;66.35;;;35.15;;
36351;SDS011;22382;44.768;17.206;2023-12-28T07:18:50;85.63;;;47.10;;
36351;SDS011;22382;44.768;17.206;2023-12-28T07:21:18;58.80;;;33.10;;
36351;SDS011;22382;44.768;17.206;2023-12-28T07:23:45;51.63;;;29.23;;
36351;SDS011;22382;44.768;17.206;2023-12-28T07:26:15;44.53;;;25.27;;
36351;SDS011;22382;44.768;17.206;2023-12-28T07:28:43;35.20;;;22.65;;
36351;SDS011;22382;44.768;17.206;2023-12-28T07:31:11;35.42;;;22.25;;
36351;SDS011;22382;44.768;17.206;2023-12-28T07:33:48;35.38;;;21.63;;
36351;SDS011;22382;44.768;17.206;2023-12-28T07:36:15;34.70;;;20.85;;
36351;SDS011;22382;44.768;17.206;2023-12-28T07:38:42;34.83;;;20.70;;
36351;SDS011;22382;44.768;17.206;2023-12-28T07:41:10;34.55;;;19.42;;
36351;SDS011;22382;44.768;17.206;2023-12-28T07:43:37;29.55;;;17.30;;
36351;SDS011;22382;44.768;17.206;2023-12-28T07:46:05;32.35;;;17.67;;
36351;SDS011;22382;44.768;17.206;2023-12-28T07:48:32;31.45;;;17.83;;
36351;SDS011;22382;44.768;17.206;2023-12-28T07:51:03;27.45;;;15.32;;
36351;SDS011;22382;44.768;17.206;2023-12-28T07:53:31;28.67;;;14.85;;
36351;SDS011;22382;44.768;17.206;2023-12-28T07:55:59;21.98;;;13.77;;
36351;SDS011;22382;44.768;17.206;2023-12-28T07:58:26;24.92;;;15.23;;
36351;SDS011;22382;44.768;17.206;2023-12-28T08:00:53;26.88;;;15.07;;
36351;SDS011;22382;44.768;17.206;2023-12-28T08:03:20;25.00;;;15.93;;
36351;SDS011;22382;44.768;17.206;2023-12-28T08:05:47;27.67;;;15.00;;
36351;SDS011;22382;44.768;17.206;2023-12-28T08:08:15;31.65;;;17.38;;
36351;SDS011;22382;44.768;17.206;2023-12-28T08:10:42;37.38;;;20.83;;
36351;SDS011;22382;44.768;17.206;2023-12-28T08:13:09;48.67;;;25.83;;
36351;SDS011;22382;44.768;17.206;2023-12-28T08:15:36;70.97;;;36.50;;
36351;SDS011;22382;44.768;17.206;2023-12-28T08:18:03;66.60;;;34.78;;
36351;SDS011;22382;44.768;17.206;2023-12-28T08:20:31;64.57;;;35.58;;
36351;SDS011;22382;44.768;17.206;2023-12-28T08:22:58;54.70;;;30.63;;
36351;SDS011;22382;44.768;17.206;2023-12-28T08:25:42;56.58;;;30.77;;
36351;SDS011;22382;44.768;17.206;2023-12-28T08:28:09;50.50;;;29.45;;
36351;SDS011;22382;44.768;17.206;2023-12-28T08:30:37;52.50;;;30.77;;
36351;SDS011;22382;44.768;17.206;2023-12-28T08:33:04;48.13;;;29.65;;
36351;SDS011;22382;44.768;17.206;2023-12-28T08:35:32;45.80;;;27.98;;
36351;SDS011;22382;44.768;17.206;2023-12-28T08:37:59;42.83;;;25.48;;
36351;SDS011;22382;44.768;17.206;2023-12-28T08:40:26;45.80;;;26.45;;
36351;SDS011;22382;44.768;17.206;2023-12-28T08:42:54;55.25;;;32.97;;
36351;SDS011;22382;44.768;17.206;2023-12-28T08:45:21;60.70;;;38.22;;
36351;SDS011;22382;44.768;17.206;2023-12-28T08:47:49;59.08;;;37.83;;
36351;SDS011;22382;44.768;17.206;2023-12-28T08:50:16;62.38;;;38.58;;
36351;SDS011;22382;44.768;17.206;2023-12-28T08:52:43;62.53;;;38.28;;
36351;SDS011;22382;44.768;17.206;2023-12-28T08:55:10;81.03;;;40.33;;
36351;SDS011;22382;44.768;17.206;2023-12-28T08:57:38;66.03;;;40.35;;
36351;SDS011;22382;44.768;17.206;2023-12-28T09:00:09;63.95;;;40.25;;
36351;SDS011;22382;44.768;17.206;2023-12-28T09:02:37;83.95;;;49.75;;
36351;SDS011;22382;44.768;17.206;2023-12-28T09:05:04;87.75;;;51.65;;
36351;SDS011;22382;44.768;17.206;2023-12-28T09:07:32;86.18;;;49.70;;
36351;SDS011;22382;44.768;17.206;2023-12-28T09:09:59;77.05;;;47.72;;
36351;SDS011;22382;44.768;17.206;2023-12-28T09:12:26;83.68;;;49.67;;
36351;SDS011;22382;44.768;17.206;2023-12-28T09:14:53;90.15;;;54.17;;
36351;SDS011;22382;44.768;17.206;2023-12-28T09:17:21;81.82;;;48.88;;
36351;SDS011;22382;44.768;17.206;2023-12-28T09:19:49;66.97;;;38.28;;
36351;SDS011;22382;44.768;17.206;2023-12-28T09:22:17;57.05;;;35.60;;
36351;SDS011;22382;44.768;17.206;2023-12-28T09:24:44;57.58;;;35.00;;
36351;SDS011;22382;44.768;17.206;2023-12-28T09:27:11;48.58;;;30.83;;
36351;SDS011;22382;44.768;17.206;2023-12-28T09:29:38;48.15;;;29.02;;
36351;SDS011;22382;44.768;17.206;2023-12-28T09:32:06;45.97;;;28.05;;
36351;SDS011;22382;44.768;17.206;2023-12-28T09:34:33;49.63;;;29.75;;
36351;SDS011;22382;44.768;17.206;2023-12-28T09:37:00;50.50;;;29.65;;
36351;SDS011;22382;44.768;17.206;2023-12-28T09:39:27;49.30;;;31.52;;
36351;SDS011;22382;44.768;17.206;2023-12-28T09:41:56;49.92;;;29.73;;
36351;SDS011;22382;44.768;17.206;2023-12-28T09:44:27;51.10;;;31.52;;
36351;SDS011;22382;44.768;17.206;2023-12-28T09:46:57;44.08;;;29.20;;
36351;SDS011;22382;44.768;17.206;2023-12-28T09:49:24;48.08;;;29.60;;
36351;SDS011;22382;44.768;17.206;2023-12-28T09:51:52;46.63;;;30.88;;
36351;SDS011;22382;44.768;17.206;2023-12-28T09:54:19;49.70;;;32.42;;
36351;SDS011;22382;44.768;17.206;2023-12-28T09:56:46;55.92;;;32.63;;
36351;SDS011;22382;44.768;17.206;2023-12-28T09:59:14;46.20;;;29.33;;
36351;SDS011;22382;44.768;17.206;2023-12-28T10:01:45;46.08;;;28.27;;
36351;SDS011;22382;44.768;17.206;2023-12-28T10:04:13;49.80;;;29.10;;
36351;SDS011;22382;44.768;17.206;2023-12-28T10:06:42;40.90;;;26.38;;
36351;SDS011;22382;44.768;17.206;2023-12-28T10:09:10;39.72;;;25.10;;
36351;SDS011;22382;44.768;17.206;2023-12-28T10:11:37;31.40;;;21.33;;
36351;SDS011;22382;44.768;17.206;2023-12-28T10:14:05;27.85;;;16.85;;
36351;SDS011;22382;44.768;17.206;2023-12-28T10:16:34;26.50;;;16.00;;
36351;SDS011;22382;44.768;17.206;2023-12-28T10:19:01;22.05;;;14.15;;
36351;SDS011;22382;44.768;17.206;2023-12-28T10:21:28;23.45;;;15.10;;
36351;SDS011;22382;44.768;17.206;2023-12-28T10:23:55;28.70;;;16.83;;
36351;SDS011;22382;44.768;17.206;2023-12-28T10:26:22;36.30;;;17.70;;
36351;SDS011;22382;44.768;17.206;2023-12-28T10:28:56;28.20;;;16.50;;
36351;SDS011;22382;44.768;17.206;2023-12-28T10:31:26;30.92;;;18.40;;
36351;SDS011;22382;44.768;17.206;2023-12-28T10:33:57;24.45;;;15.93;;
36351;SDS011;22382;44.768;17.206;2023-12-28T10:36:28;30.80;;;17.42;;
36351;SDS011;22382;44.768;17.206;2023-12-28T10:38:56;25.10;;;15.10;;
36351;SDS011;22382;44.768;17.206;2023-12-28T10:41:27;26.75;;;15.00;;
36351;SDS011;22382;44.768;17.206;2023-12-28T10:44:00;24.30;;;15.10;;
36351;SDS011;22382;44.768;17.206;2023-12-28T10:46:38;24.13;;;15.05;;
36351;SDS011;22382;44.768;17.206;2023-12-28T10:49:11;20.63;;;13.65;;
36351;SDS011;22382;44.768;17.206;2023-12-28T10:51:40;24.00;;;13.98;;
36351;SDS011;22382;44.768;17.206;2023-12-28T10:57:05;25.40;;;14.55;;
36351;SDS011;22382;44.768;17.206;2023-12-28T11:02:41;34.22;;;16.48;;
36351;SDS011;22382;44.768;17.206;2023-12-28T11:05:12;27.60;;;13.23;;
36351;SDS011;22382;44.768;17.206;2023-12-28T11:07:40;29.55;;;14.50;;
36351;SDS011;22382;44.768;17.206;2023-12-28T11:10:09;26.63;;;14.27;;
36351;SDS011;22382;44.768;17.206;2023-12-28T11:12:40;29.55;;;13.75;;
36351;SDS011;22382;44.768;17.206;2023-12-28T11:15:08;31.75;;;14.80;;
36351;SDS011;22382;44.768;17.206;2023-12-28T11:17:38;30.58;;;13.70;;
36351;SDS011;22382;44.768;17.206;2023-12-28T11:20:07;26.60;;;13.93;;
36351;SDS011;22382;44.768;17.206;2023-12-28T11:22:36;27.63;;;14.02;;
36351;SDS011;22382;44.768;17.206;2023-12-28T11:25:05;30.45;;;15.23;;
36351;SDS011;22382;44.768;17.206;2023-12-28T11:27:33;29.05;;;14.82;;
36351;SDS011;22382;44.768;17.206;2023-12-28T11:30:03;25.48;;;15.43;;
36351;SDS011;22382;44.768;17.206;2023-12-28T11:32:38;33.30;;;16.40;;
36351;SDS011;22382;44.768;17.206;2023-12-28T11:35:10;37.40;;;22.15;;
36351;SDS011;22382;44.768;17.206;2023-12-28T11:37:41;43.30;;;23.58;;
36351;SDS011;22382;44.768;17.206;2023-12-28T11:40:16;35.17;;;22.13;;
36351;SDS011;22382;44.768;17.206;2023-12-28T11:42:52;36.60;;;22.05;;
36351;SDS011;22382;44.768;17.206;2023-12-28T11:45:21;36.50;;;20.90;;
36351;SDS011;22382;44.768;17.206;2023-12-28T11:48:01;42.83;;;25.55;;
36351;SDS011;22382;44.768;17.206;2023-12-28T11:50:30;41.85;;;21.08;;
36351;SDS011;22382;44.768;17.206;2023-12-28T11:52:58;37.67;;;21.45;;
36351;SDS011;22382;44.768;17.206;2023-12-28T11:55:26;34.25;;;20.92;;
36351;SDS011;22382;44.768;17.206;2023-12-28T11:57:53;38.75;;;20.50;;
36351;SDS011;22382;44.768;17.206;2023-12-28T12:00:22;31.65;;;17.55;;
36351;SDS011;22382;44.768;17.206;2023-12-28T12:02:52;27.42;;;15.00;;
36351;SDS011;22382;44.768;17.206;2023-12-28T12:05:22;28.73;;;14.50;;
36351;SDS011;22382;44.768;17.206;2023-12-28T12:07:50;17.92;;;9.13;;
36351;SDS011;22382;44.768;17.206;2023-12-28T12:10:17;25.15;;;11.52;;
36351;SDS011;22382;44.768;17.206;2023-12-28T12:12:44;18.10;;;10.35;;
36351;SDS011;22382;44.768;17.206;2023-12-28T12:15:11;21.83;;;11.18;;
36351;SDS011;22382;44.768;17.206;2023-12-28T12:17:39;17.98;;;8.48;;
36351;SDS011;22382;44.768;17.206;2023-12-28T12:20:06;19.30;;;9.13;;
36351;SDS011;22382;44.768;17.206;2023-12-28T12:22:35;16.52;;;7.93;;
36351;SDS011;22382;44.768;17.206;2023-12-28T12:25:03;20.13;;;8.43;;
36351;SDS011;22382;44.768;17.206;2023-12-28T12:27:33;12.68;;;7.35;;
36351;SDS011;22382;44.768;17.206;2023-12-28T12:30:02;17.90;;;8.15;;
36351;SDS011;22382;44.768;17.206;2023-12-28T12:32:31;16.15;;;7.72;;
36351;SDS011;22382;44.768;17.206;2023-12-28T12:34:59;12.02;;;7.03;;
36351;SDS011;22382;44.768;17.206;2023-12-28T12:37:27;12.55;;;6.32;;
36351;SDS011;22382;44.768;17.206;2023-12-28T12:39:55;14.02;;;6.97;;
36351;SDS011;22382;44.768;17.206;2023-12-28T12:42:23;11.27;;;7.35;;
36351;SDS011;22382;44.768;17.206;2023-12-28T12:44:51;12.45;;;7.65;;
36351;SDS011;22382;44.768;17.206;2023-12-28T12:47:19;11.50;;;7.40;;
36351;SDS011;22382;44.768;17.206;2023-12-28T12:49:46;11.27;;;6.93;;
36351;SDS011;22382;44.768;17.206;2023-12-28T12:52:14;12.52;;;7.20;;
36351;SDS011;22382;44.768;17.206;2023-12-28T12:54:41;14.13;;;7.40;;
36351;SDS011;22382;44.768;17.206;2023-12-28T12:57:09;14.77;;;7.80;;
36351;SDS011;22382;44.768;17.206;2023-12-28T12:59:36;19.98;;;8.63;;
36351;SDS011;22382;44.768;17.206;2023-12-28T13:02:03;19.75;;;9.30;;
36351;SDS011;22382;44.768;17.206;2023-12-28T13:04:35;15.60;;;8.82;;
36351;SDS011;22382;44.768;17.206;2023-12-28T13:07:05;16.23;;;8.35;;
36351;SDS011;22382;44.768;17.206;2023-12-28T13:09:32;14.75;;;8.82;;
36351;SDS011;22382;44.768;17.206;2023-12-28T13:11:59;13.95;;;8.13;;
36351;SDS011;22382;44.768;17.206;2023-12-28T13:14:26;20.92;;;8.48;;
36351;SDS011;22382;44.768;17.206;2023-12-28T13:16:53;13.45;;;7.75;;
36351;SDS011;22382;44.768;17.206;2023-12-28T13:19:24;15.70;;;8.82;;
36351;SDS011;22382;44.768;17.206;2023-12-28T13:21:51;18.95;;;9.77;;
36351;SDS011;22382;44.768;17.206;2023-12-28T13:24:21;19.33;;;9.52;;
36351;SDS011;22382;44.768;17.206;2023-12-28T13:26:49;25.92;;;12.00;;
36351;SDS011;22382;44.768;17.206;2023-12-28T13:29:16;23.48;;;11.57;;
36351;SDS011;22382;44.768;17.206;2023-12-28T13:31:43;24.40;;;12.52;;
36351;SDS011;22382;44.768;17.206;2023-12-28T13:34:12;31.92;;;17.38;;
36351;SDS011;22382;44.768;17.206;2023-12-28T13:36:39;24.33;;;13.88;;
36351;SDS011;22382;44.768;17.206;2023-12-28T13:39:07;24.17;;;12.73;;
36351;SDS011;22382;44.768;17.206;2023-12-28T13:41:37;23.42;;;11.95;;
36351;SDS011;22382;44.768;17.206;2023-12-28T13:44:04;22.02;;;11.82;;
36351;SDS011;22382;44.768;17.206;2023-12-28T13:46:36;28.77;;;12.48;;
36351;SDS011;22382;44.768;17.206;2023-12-28T13:49:04;18.23;;;12.50;;
36351;SDS011;22382;44.768;17.206;2023-12-28T13:51:42;22.38;;;13.43;;
36351;SDS011;22382;44.768;17.206;2023-12-28T13:54:09;27.45;;;15.38;;
36351;SDS011;22382;44.768;17.206;2023-12-28T13:56:36;27.98;;;14.98;;
36351;SDS011;22382;44.768;17.206;2023-12-28T13:59:04;27.30;;;15.27;;
36351;SDS011;22382;44.768;17.206;2023-12-28T14:01:32;24.95;;;14.63;;
36351;SDS011;22382;44.768;17.206;2023-12-28T14:03:59;27.20;;;17.33;;
36351;SDS011;22382;44.768;17.206;2023-12-28T14:06:26;35.72;;;20.90;;
36351;SDS011;22382;44.768;17.206;2023-12-28T14:08:54;31.65;;;19.83;;
36351;SDS011;22382;44.768;17.206;2023-12-28T14:11:21;36.78;;;18.95;;
36351;SDS011;22382;44.768;17.206;2023-12-28T14:13:48;31.73;;;18.95;;
36351;SDS011;22382;44.768;17.206;2023-12-28T14:16:16;35.42;;;19.20;;
36351;SDS011;22382;44.768;17.206;2023-12-28T14:18:43;32.97;;;18.58;;
36351;SDS011;22382;44.768;17.206;2023-12-28T14:21:10;38.55;;;21.42;;
36351;SDS011;22382;44.768;17.206;2023-12-28T14:23:39;36.95;;;21.17;;
36351;SDS011;22382;44.768;17.206;2023-12-28T14:26:16;35.78;;;20.77;;
36351;SDS011;22382;44.768;17.206;2023-12-28T14:28:43;28.23;;;18.13;;